Current Weather

Brookhaven

Shirley, New York (KHWV)

Report from: Monday, June 17, 2024 5:56 AM EDT
Current time: Monday, June 17, 2024 7:07 AM EDT

Nearby weather – Weather history – Daily summaries
Weather forecast

Temperature15.6°C (60.1°F)
Dew point13.3°C (55.9°F)
Winds Calm
Visibility10 mi. (16.1 km)
Clouds Sky clear
Altimeter30.22 in.Hg (1023 mB)
Relative humidity86 %
Density altitude-59 ft. (-18 m)
Sea-level pressure102.3 kPa (1023 mB, 30.22 in.Hg)
Remarks Fully automated report
Automated weather observing station with precipitation discriminator
Flight conditions Visual Meteorological Conditions
Raw dataKHWV 170956Z AUTO 00000KT 10SM CLR 16/13 A3022 RMK AO2 SLP234 T01560133
An error has occurred. This application may no longer respond until reloaded. Reload 🗙